sensor_id;sensor_type;location;lat;lon;timestamp;P1;durP1;ratioP1;P2;durP2;ratioP2
81201;SDS011;71068;47.662;-2.750;2023-09-18T00:01:00;9.25;;;4.15;;
81201;SDS011;71068;47.662;-2.750;2023-09-18T00:03:26;10.73;;;3.85;;
81201;SDS011;71068;47.662;-2.750;2023-09-18T00:05:53;8.35;;;4.15;;
81201;SDS011;71068;47.662;-2.750;2023-09-18T00:08:19;8.93;;;4.30;;
81201;SDS011;71068;47.662;-2.750;2023-09-18T00:10:49;13.15;;;3.90;;
81201;SDS011;71068;47.662;-2.750;2023-09-18T00:13:19;12.20;;;5.20;;
81201;SDS011;71068;47.662;-2.750;2023-09-18T00:15:55;11.23;;;5.00;;
81201;SDS011;71068;47.662;-2.750;2023-09-18T00:18:24;8.05;;;4.70;;
81201;SDS011;71068;47.662;-2.750;2023-09-18T00:20:52;11.50;;;5.35;;
81201;SDS011;71068;47.662;-2.750;2023-09-18T00:23:19;11.13;;;4.55;;
81201;SDS011;71068;47.662;-2.750;2023-09-18T00:25:47;10.23;;;5.38;;
81201;SDS011;71068;47.662;-2.750;2023-09-18T00:28:15;6.85;;;4.47;;
81201;SDS011;71068;47.662;-2.750;2023-09-18T00:30:48;10.23;;;5.10;;
81201;SDS011;71068;47.662;-2.750;2023-09-18T00:33:17;9.30;;;4.57;;
81201;SDS011;71068;47.662;-2.750;2023-09-18T00:38:17;8.02;;;3.78;;
81201;SDS011;71068;47.662;-2.750;2023-09-18T00:40:44;7.30;;;4.43;;
81201;SDS011;71068;47.662;-2.750;2023-09-18T00:43:10;10.20;;;5.60;;
81201;SDS011;71068;47.662;-2.750;2023-09-18T00:45:42;9.63;;;5.28;;
81201;SDS011;71068;47.662;-2.750;2023-09-18T00:48:11;7.68;;;4.40;;
81201;SDS011;71068;47.662;-2.750;2023-09-18T00:50:42;9.25;;;4.90;;
81201;SDS011;71068;47.662;-2.750;2023-09-18T00:53:11;6.72;;;4.13;;
81201;SDS011;71068;47.662;-2.750;2023-09-18T00:55:44;7.32;;;4.40;;
81201;SDS011;71068;47.662;-2.750;2023-09-18T00:58:15;9.40;;;4.20;;
81201;SDS011;71068;47.662;-2.750;2023-09-18T01:00:44;9.93;;;4.32;;
81201;SDS011;71068;47.662;-2.750;2023-09-18T01:03:12;5.95;;;3.58;;
81201;SDS011;71068;47.662;-2.750;2023-09-18T01:05:38;8.30;;;3.25;;
81201;SDS011;71068;47.662;-2.750;2023-09-18T01:08:06;7.97;;;4.22;;
81201;SDS011;71068;47.662;-2.750;2023-09-18T01:10:34;8.25;;;3.88;;
81201;SDS011;71068;47.662;-2.750;2023-09-18T01:13:58;10.25;;;3.67;;
81201;SDS011;71068;47.662;-2.750;2023-09-18T01:16:32;6.20;;;3.70;;
81201;SDS011;71068;47.662;-2.750;2023-09-18T01:19:11;25.48;;;4.22;;
81201;SDS011;71068;47.662;-2.750;2023-09-18T01:21:39;9.95;;;3.47;;
81201;SDS011;71068;47.662;-2.750;2023-09-18T01:24:06;8.68;;;3.30;;
81201;SDS011;71068;47.662;-2.750;2023-09-18T01:26:33;9.57;;;3.58;;
81201;SDS011;71068;47.662;-2.750;2023-09-18T01:29:01;6.53;;;3.67;;
81201;SDS011;71068;47.662;-2.750;2023-09-18T01:31:27;8.43;;;3.33;;
81201;SDS011;71068;47.662;-2.750;2023-09-18T01:33:53;7.35;;;3.22;;
81201;SDS011;71068;47.662;-2.750;2023-09-18T01:36:21;11.13;;;3.28;;
81201;SDS011;71068;47.662;-2.750;2023-09-18T01:38:50;5.80;;;3.05;;
81201;SDS011;71068;47.662;-2.750;2023-09-18T01:41:16;6.50;;;3.10;;
81201;SDS011;71068;47.662;-2.750;2023-09-18T01:43:49;7.28;;;3.92;;
81201;SDS011;71068;47.662;-2.750;2023-09-18T01:46:15;5.43;;;2.40;;
81201;SDS011;71068;47.662;-2.750;2023-09-18T01:48:45;8.63;;;3.53;;
81201;SDS011;71068;47.662;-2.750;2023-09-18T01:51:17;8.13;;;3.22;;
81201;SDS011;71068;47.662;-2.750;2023-09-18T01:53:43;7.47;;;3.72;;
81201;SDS011;71068;47.662;-2.750;2023-09-18T01:56:10;5.63;;;3.13;;
81201;SDS011;71068;47.662;-2.750;2023-09-18T01:58:36;4.80;;;2.65;;
81201;SDS011;71068;47.662;-2.750;2023-09-18T02:01:02;13.02;;;2.88;;
81201;SDS011;71068;47.662;-2.750;2023-09-18T02:03:31;5.70;;;2.58;;
81201;SDS011;71068;47.662;-2.750;2023-09-18T02:05:57;4.93;;;2.55;;
81201;SDS011;71068;47.662;-2.750;2023-09-18T02:08:23;5.03;;;2.40;;
81201;SDS011;71068;47.662;-2.750;2023-09-18T02:10:50;3.88;;;2.58;;
81201;SDS011;71068;47.662;-2.750;2023-09-18T02:13:18;5.65;;;2.35;;
81201;SDS011;71068;47.662;-2.750;2023-09-18T02:15:46;5.70;;;2.55;;
81201;SDS011;71068;47.662;-2.750;2023-09-18T02:18:13;4.65;;;1.75;;
81201;SDS011;71068;47.662;-2.750;2023-09-18T02:20:41;3.92;;;2.00;;
81201;SDS011;71068;47.662;-2.750;2023-09-18T02:23:07;6.47;;;1.95;;
81201;SDS011;71068;47.662;-2.750;2023-09-18T02:25:33;7.05;;;2.17;;
81201;SDS011;71068;47.662;-2.750;2023-09-18T02:27:59;2.60;;;1.45;;
81201;SDS011;71068;47.662;-2.750;2023-09-18T02:30:25;3.05;;;1.65;;
81201;SDS011;71068;47.662;-2.750;2023-09-18T02:32:51;3.30;;;1.98;;
81201;SDS011;71068;47.662;-2.750;2023-09-18T02:35:19;5.57;;;1.70;;
81201;SDS011;71068;47.662;-2.750;2023-09-18T02:37:45;5.07;;;2.25;;
81201;SDS011;71068;47.662;-2.750;2023-09-18T02:40:11;3.15;;;1.80;;
81201;SDS011;71068;47.662;-2.750;2023-09-18T02:42:40;3.78;;;1.80;;
81201;SDS011;71068;47.662;-2.750;2023-09-18T02:45:06;4.20;;;1.75;;
81201;SDS011;71068;47.662;-2.750;2023-09-18T02:47:35;4.40;;;1.85;;
81201;SDS011;71068;47.662;-2.750;2023-09-18T02:50:08;7.25;;;1.85;;
81201;SDS011;71068;47.662;-2.750;2023-09-18T02:52:36;7.53;;;1.83;;
81201;SDS011;71068;47.662;-2.750;2023-09-18T02:55:02;8.05;;;1.85;;
81201;SDS011;71068;47.662;-2.750;2023-09-18T02:57:28;2.47;;;1.50;;
81201;SDS011;71068;47.662;-2.750;2023-09-18T02:59:54;4.50;;;1.92;;
81201;SDS011;71068;47.662;-2.750;2023-09-18T03:02:20;5.50;;;2.20;;
81201;SDS011;71068;47.662;-2.750;2023-09-18T03:04:48;2.75;;;1.88;;
81201;SDS011;71068;47.662;-2.750;2023-09-18T03:07:14;5.65;;;1.88;;
81201;SDS011;71068;47.662;-2.750;2023-09-18T03:09:41;3.13;;;1.52;;
81201;SDS011;71068;47.662;-2.750;2023-09-18T03:12:07;4.63;;;1.65;;
81201;SDS011;71068;47.662;-2.750;2023-09-18T03:14:33;3.72;;;1.58;;
81201;SDS011;71068;47.662;-2.750;2023-09-18T03:16:59;8.57;;;2.03;;
81201;SDS011;71068;47.662;-2.750;2023-09-18T03:19:25;2.90;;;1.70;;
81201;SDS011;71068;47.662;-2.750;2023-09-18T03:21:58;1.88;;;1.50;;
81201;SDS011;71068;47.662;-2.750;2023-09-18T03:24:24;3.78;;;2.05;;
81201;SDS011;71068;47.662;-2.750;2023-09-18T03:26:51;3.90;;;2.10;;
81201;SDS011;71068;47.662;-2.750;2023-09-18T03:29:16;2.58;;;1.70;;
81201;SDS011;71068;47.662;-2.750;2023-09-18T03:31:42;4.38;;;1.80;;
81201;SDS011;71068;47.662;-2.750;2023-09-18T03:34:08;1.65;;;1.40;;
81201;SDS011;71068;47.662;-2.750;2023-09-18T03:36:36;3.72;;;1.92;;
81201;SDS011;71068;47.662;-2.750;2023-09-18T03:39:04;3.53;;;1.88;;
81201;SDS011;71068;47.662;-2.750;2023-09-18T03:41:30;5.68;;;1.70;;
81201;SDS011;71068;47.662;-2.750;2023-09-18T03:43:59;3.25;;;1.77;;
81201;SDS011;71068;47.662;-2.750;2023-09-18T03:46:26;3.63;;;1.73;;
81201;SDS011;71068;47.662;-2.750;2023-09-18T03:48:52;3.30;;;1.75;;
81201;SDS011;71068;47.662;-2.750;2023-09-18T03:51:19;4.70;;;2.30;;
81201;SDS011;71068;47.662;-2.750;2023-09-18T03:53:47;5.45;;;2.10;;
81201;SDS011;71068;47.662;-2.750;2023-09-18T03:56:15;3.08;;;1.67;;
81201;SDS011;71068;47.662;-2.750;2023-09-18T03:58:41;2.80;;;1.70;;
81201;SDS011;71068;47.662;-2.750;2023-09-18T04:01:10;2.65;;;1.48;;
81201;SDS011;71068;47.662;-2.750;2023-09-18T04:03:36;6.20;;;1.88;;
81201;SDS011;71068;47.662;-2.750;2023-09-18T04:06:02;4.30;;;1.75;;
81201;SDS011;71068;47.662;-2.750;2023-09-18T04:08:28;6.07;;;1.90;;
81201;SDS011;71068;47.662;-2.750;2023-09-18T04:10:55;2.78;;;1.58;;
81201;SDS011;71068;47.662;-2.750;2023-09-18T04:13:23;5.88;;;2.33;;
81201;SDS011;71068;47.662;-2.750;2023-09-18T04:15:56;3.45;;;2.03;;
81201;SDS011;71068;47.662;-2.750;2023-09-18T04:18:22;2.13;;;1.65;;
81201;SDS011;71068;47.662;-2.750;2023-09-18T04:20:48;5.45;;;2.13;;
81201;SDS011;71068;47.662;-2.750;2023-09-18T04:23:21;4.55;;;2.15;;
81201;SDS011;71068;47.662;-2.750;2023-09-18T04:25:49;5.10;;;2.05;;
81201;SDS011;71068;47.662;-2.750;2023-09-18T04:28:17;3.50;;;1.90;;
81201;SDS011;71068;47.662;-2.750;2023-09-18T04:30:45;4.60;;;1.90;;
81201;SDS011;71068;47.662;-2.750;2023-09-18T04:33:11;5.70;;;1.77;;
81201;SDS011;71068;47.662;-2.750;2023-09-18T04:35:43;6.28;;;2.38;;
81201;SDS011;71068;47.662;-2.750;2023-09-18T04:38:09;5.30;;;1.83;;
81201;SDS011;71068;47.662;-2.750;2023-09-18T04:40:36;6.95;;;1.95;;
81201;SDS011;71068;47.662;-2.750;2023-09-18T04:43:04;2.72;;;1.48;;
81201;SDS011;71068;47.662;-2.750;2023-09-18T04:45:31;4.70;;;1.83;;
81201;SDS011;71068;47.662;-2.750;2023-09-18T04:47:58;3.80;;;1.83;;
81201;SDS011;71068;47.662;-2.750;2023-09-18T04:50:27;4.57;;;2.28;;
81201;SDS011;71068;47.662;-2.750;2023-09-18T04:52:53;4.80;;;1.92;;
81201;SDS011;71068;47.662;-2.750;2023-09-18T04:55:21;2.28;;;1.45;;
81201;SDS011;71068;47.662;-2.750;2023-09-18T04:57:48;3.78;;;1.73;;
81201;SDS011;71068;47.662;-2.750;2023-09-18T05:00:15;2.78;;;1.67;;
81201;SDS011;71068;47.662;-2.750;2023-09-18T05:02:42;9.27;;;1.88;;
81201;SDS011;71068;47.662;-2.750;2023-09-18T05:05:09;3.72;;;2.00;;
81201;SDS011;71068;47.662;-2.750;2023-09-18T05:07:37;3.42;;;2.03;;
81201;SDS011;71068;47.662;-2.750;2023-09-18T05:10:03;4.07;;;1.88;;
81201;SDS011;71068;47.662;-2.750;2023-09-18T05:12:30;4.05;;;2.55;;
81201;SDS011;71068;47.662;-2.750;2023-09-18T05:14:56;5.00;;;1.90;;
81201;SDS011;71068;47.662;-2.750;2023-09-18T05:17:27;4.28;;;2.03;;
81201;SDS011;71068;47.662;-2.750;2023-09-18T05:20:11;5.88;;;1.90;;
81201;SDS011;71068;47.662;-2.750;2023-09-18T05:22:41;4.85;;;2.00;;
81201;SDS011;71068;47.662;-2.750;2023-09-18T05:25:08;3.25;;;1.58;;
81201;SDS011;71068;47.662;-2.750;2023-09-18T05:27:35;3.50;;;1.70;;
81201;SDS011;71068;47.662;-2.750;2023-09-18T05:30:10;2.28;;;1.70;;
81201;SDS011;71068;47.662;-2.750;2023-09-18T05:32:41;5.97;;;1.77;;
81201;SDS011;71068;47.662;-2.750;2023-09-18T05:35:08;10.07;;;2.30;;
81201;SDS011;71068;47.662;-2.750;2023-09-18T05:37:39;3.70;;;1.80;;
81201;SDS011;71068;47.662;-2.750;2023-09-18T05:40:09;6.55;;;2.15;;
81201;SDS011;71068;47.662;-2.750;2023-09-18T05:42:41;3.30;;;2.10;;
81201;SDS011;71068;47.662;-2.750;2023-09-18T05:45:09;3.00;;;1.85;;
81201;SDS011;71068;47.662;-2.750;2023-09-18T05:47:40;5.43;;;2.00;;
81201;SDS011;71068;47.662;-2.750;2023-09-18T05:50:10;3.40;;;2.20;;
81201;SDS011;71068;47.662;-2.750;2023-09-18T05:52:44;2.67;;;1.90;;
81201;SDS011;71068;47.662;-2.750;2023-09-18T05:55:13;6.68;;;2.15;;
81201;SDS011;71068;47.662;-2.750;2023-09-18T05:57:41;3.35;;;2.10;;
81201;SDS011;71068;47.662;-2.750;2023-09-18T06:02:46;3.38;;;1.77;;
81201;SDS011;71068;47.662;-2.750;2023-09-18T06:05:19;6.32;;;2.03;;
81201;SDS011;71068;47.662;-2.750;2023-09-18T06:07:50;3.67;;;1.83;;
81201;SDS011;71068;47.662;-2.750;2023-09-18T06:10:17;6.22;;;1.83;;
81201;SDS011;71068;47.662;-2.750;2023-09-18T06:12:44;3.53;;;1.83;;
81201;SDS011;71068;47.662;-2.750;2023-09-18T06:15:12;4.82;;;1.73;;
81201;SDS011;71068;47.662;-2.750;2023-09-18T06:22:37;5.22;;;1.58;;
81201;SDS011;71068;47.662;-2.750;2023-09-18T06:25:05;3.50;;;1.70;;
81201;SDS011;71068;47.662;-2.750;2023-09-18T06:27:41;3.38;;;2.08;;
81201;SDS011;71068;47.662;-2.750;2023-09-18T06:32:34;2.88;;;1.98;;
81201;SDS011;71068;47.662;-2.750;2023-09-18T06:35:02;6.43;;;2.35;;
81201;SDS011;71068;47.662;-2.750;2023-09-18T06:37:29;4.82;;;2.05;;
81201;SDS011;71068;47.662;-2.750;2023-09-18T06:39:55;4.70;;;1.90;;
81201;SDS011;71068;47.662;-2.750;2023-09-18T06:44:53;8.13;;;1.90;;
81201;SDS011;71068;47.662;-2.750;2023-09-18T06:47:22;5.55;;;1.95;;
81201;SDS011;71068;47.662;-2.750;2023-09-18T06:52:16;4.05;;;2.15;;
81201;SDS011;71068;47.662;-2.750;2023-09-18T06:54:43;6.22;;;2.28;;
81201;SDS011;71068;47.662;-2.750;2023-09-18T06:57:09;7.93;;;2.28;;
81201;SDS011;71068;47.662;-2.750;2023-09-18T06:59:36;7.90;;;1.92;;
81201;SDS011;71068;47.662;-2.750;2023-09-18T07:02:02;4.32;;;1.55;;
81201;SDS011;71068;47.662;-2.750;2023-09-18T07:04:29;4.90;;;1.70;;
81201;SDS011;71068;47.662;-2.750;2023-09-18T07:06:55;3.22;;;1.40;;
81201;SDS011;71068;47.662;-2.750;2023-09-18T07:09:21;7.78;;;2.15;;
81201;SDS011;71068;47.662;-2.750;2023-09-18T07:11:52;6.68;;;1.52;;
81201;SDS011;71068;47.662;-2.750;2023-09-18T07:14:25;5.25;;;2.10;;
81201;SDS011;71068;47.662;-2.750;2023-09-18T07:16:53;5.82;;;1.80;;
81201;SDS011;71068;47.662;-2.750;2023-09-18T07:19:19;4.47;;;1.67;;
81201;SDS011;71068;47.662;-2.750;2023-09-18T07:21:47;3.65;;;1.88;;
81201;SDS011;71068;47.662;-2.750;2023-09-18T07:24:14;3.20;;;1.63;;
81201;SDS011;71068;47.662;-2.750;2023-09-18T07:26:45;2.65;;;1.60;;
81201;SDS011;71068;47.662;-2.750;2023-09-18T07:29:13;5.07;;;1.70;;
81201;SDS011;71068;47.662;-2.750;2023-09-18T07:31:45;7.07;;;2.28;;
81201;SDS011;71068;47.662;-2.750;2023-09-18T07:34:13;2.00;;;1.35;;
81201;SDS011;71068;47.662;-2.750;2023-09-18T07:36:43;5.22;;;1.55;;
81201;SDS011;71068;47.662;-2.750;2023-09-18T07:39:09;8.05;;;1.83;;
81201;SDS011;71068;47.662;-2.750;2023-09-18T07:41:37;3.17;;;1.50;;
81201;SDS011;71068;47.662;-2.750;2023-09-18T07:44:03;2.95;;;1.17;;
81201;SDS011;71068;47.662;-2.750;2023-09-18T07:46:29;5.03;;;1.42;;
81201;SDS011;71068;47.662;-2.750;2023-09-18T07:48:55;3.65;;;1.30;;
81201;SDS011;71068;47.662;-2.750;2023-09-18T07:51:22;3.17;;;1.27;;
81201;SDS011;71068;47.662;-2.750;2023-09-18T07:53:53;7.85;;;1.45;;
81201;SDS011;71068;47.662;-2.750;2023-09-18T07:56:25;2.95;;;1.40;;
81201;SDS011;71068;47.662;-2.750;2023-09-18T07:58:52;9.85;;;1.85;;
81201;SDS011;71068;47.662;-2.750;2023-09-18T08:01:20;4.30;;;1.88;;
81201;SDS011;71068;47.662;-2.750;2023-09-18T08:03:47;2.85;;;1.27;;
81201;SDS011;71068;47.662;-2.750;2023-09-18T08:06:16;5.13;;;1.13;;
81201;SDS011;71068;47.662;-2.750;2023-09-18T08:08:45;5.35;;;1.70;;
81201;SDS011;71068;47.662;-2.750;2023-09-18T08:11:15;8.55;;;1.30;;
81201;SDS011;71068;47.662;-2.750;2023-09-18T08:13:42;2.40;;;1.60;;
81201;SDS011;71068;47.662;-2.750;2023-09-18T08:16:08;4.00;;;1.65;;
81201;SDS011;71068;47.662;-2.750;2023-09-18T08:18:36;3.10;;;1.25;;
81201;SDS011;71068;47.662;-2.750;2023-09-18T08:21:07;2.85;;;1.35;;
81201;SDS011;71068;47.662;-2.750;2023-09-18T08:23:35;3.13;;;1.27;;
81201;SDS011;71068;47.662;-2.750;2023-09-18T08:26:02;4.57;;;1.25;;
81201;SDS011;71068;47.662;-2.750;2023-09-18T08:28:29;6.05;;;1.30;;
81201;SDS011;71068;47.662;-2.750;2023-09-18T08:30:56;3.42;;;0.93;;
81201;SDS011;71068;47.662;-2.750;2023-09-18T08:33:26;3.00;;;1.35;;
81201;SDS011;71068;47.662;-2.750;2023-09-18T08:35:53;4.85;;;1.20;;
81201;SDS011;71068;47.662;-2.750;2023-09-18T08:38:19;4.28;;;1.38;;
81201;SDS011;71068;47.662;-2.750;2023-09-18T08:40:46;5.13;;;2.25;;
81201;SDS011;71068;47.662;-2.750;2023-09-18T08:43:14;3.70;;;1.25;;
81201;SDS011;71068;47.662;-2.750;2023-09-18T08:48:21;4.40;;;1.52;;
81201;SDS011;71068;47.662;-2.750;2023-09-18T08:50:48;1.92;;;1.05;;
81201;SDS011;71068;47.662;-2.750;2023-09-18T08:53:17;3.17;;;1.40;;
81201;SDS011;71068;47.662;-2.750;2023-09-18T08:55:43;2.95;;;1.63;;
81201;SDS011;71068;47.662;-2.750;2023-09-18T08:58:08;1.20;;;1.10;;
81201;SDS011;71068;47.662;-2.750;2023-09-18T09:00:36;7.35;;;1.77;;
81201;SDS011;71068;47.662;-2.750;2023-09-18T09:03:03;4.97;;;1.40;;
81201;SDS011;71068;47.662;-2.750;2023-09-18T09:05:32;4.15;;;2.08;;
81201;SDS011;71068;47.662;-2.750;2023-09-18T09:07:59;1.85;;;1.33;;
81201;SDS011;71068;47.662;-2.750;2023-09-18T09:10:26;4.93;;;1.27;;
81201;SDS011;71068;47.662;-2.750;2023-09-18T09:12:55;6.38;;;1.52;;
81201;SDS011;71068;47.662;-2.750;2023-09-18T09:15:25;4.85;;;1.15;;
81201;SDS011;71068;47.662;-2.750;2023-09-18T09:18:06;5.95;;;1.80;;
81201;SDS011;71068;47.662;-2.750;2023-09-18T09:20:34;5.78;;;1.40;;
81201;SDS011;71068;47.662;-2.750;2023-09-18T09:23:01;4.22;;;1.20;;
81201;SDS011;71068;47.662;-2.750;2023-09-18T09:25:29;4.53;;;1.52;;
81201;SDS011;71068;47.662;-2.750;2023-09-18T09:28:02;8.25;;;1.55;;
81201;SDS011;71068;47.662;-2.750;2023-09-18T09:30:32;4.38;;;1.30;;
81201;SDS011;71068;47.662;-2.750;2023-09-18T09:33:05;3.63;;;1.50;;
81201;SDS011;71068;47.662;-2.750;2023-09-18T09:35:34;9.80;;;2.00;;
81201;SDS011;71068;47.662;-2.750;2023-09-18T09:38:12;4.20;;;1.70;;
81201;SDS011;71068;47.662;-2.750;2023-09-18T09:40:42;14.25;;;1.88;;
81201;SDS011;71068;47.662;-2.750;2023-09-18T09:43:11;3.17;;;1.40;;
81201;SDS011;71068;47.662;-2.750;2023-09-18T09:45:39;3.45;;;1.40;;
81201;SDS011;71068;47.662;-2.750;2023-09-18T09:48:06;3.58;;;1.38;;
81201;SDS011;71068;47.662;-2.750;2023-09-18T09:50:35;4.88;;;1.40;;
81201;SDS011;71068;47.662;-2.750;2023-09-18T09:53:14;5.85;;;1.55;;
81201;SDS011;71068;47.662;-2.750;2023-09-18T09:55:40;7.07;;;1.77;;
81201;SDS011;71068;47.662;-2.750;2023-09-18T09:58:08;9.98;;;1.95;;
81201;SDS011;71068;47.662;-2.750;2023-09-18T10:00:39;2.58;;;1.23;;
81201;SDS011;71068;47.662;-2.750;2023-09-18T10:03:12;2.50;;;1.05;;
81201;SDS011;71068;47.662;-2.750;2023-09-18T10:05:43;5.65;;;1.60;;
81201;SDS011;71068;47.662;-2.750;2023-09-18T10:08:12;9.57;;;1.58;;
81201;SDS011;71068;47.662;-2.750;2023-09-18T10:10:50;3.10;;;1.42;;
81201;SDS011;71068;47.662;-2.750;2023-09-18T10:13:32;4.55;;;1.30;;
81201;SDS011;71068;47.662;-2.750;2023-09-18T10:21:37;4.70;;;1.50;;
81201;SDS011;71068;47.662;-2.750;2023-09-18T10:26:57;4.55;;;1.33;;
81201;SDS011;71068;47.662;-2.750;2023-09-18T10:31:54;3.35;;;1.00;;
81201;SDS011;71068;47.662;-2.750;2023-09-18T10:34:22;1.95;;;1.30;;
81201;SDS011;71068;47.662;-2.750;2023-09-18T10:36:56;3.60;;;2.08;;
81201;SDS011;71068;47.662;-2.750;2023-09-18T10:39:25;2.60;;;1.20;;
81201;SDS011;71068;47.662;-2.750;2023-09-18T10:41:55;2.50;;;1.55;;
81201;SDS011;71068;47.662;-2.750;2023-09-18T10:44:23;2.08;;;1.42;;
81201;SDS011;71068;47.662;-2.750;2023-09-18T10:46:51;4.15;;;1.80;;
81201;SDS011;71068;47.662;-2.750;2023-09-18T10:49:18;1.73;;;1.23;;
81201;SDS011;71068;47.662;-2.750;2023-09-18T10:51:46;4.25;;;1.48;;
81201;SDS011;71068;47.662;-2.750;2023-09-18T10:54:16;11.38;;;1.80;;
81201;SDS011;71068;47.662;-2.750;2023-09-18T10:56:47;2.95;;;1.30;;
81201;SDS011;71068;47.662;-2.750;2023-09-18T10:59:14;3.03;;;1.20;;
81201;SDS011;71068;47.662;-2.750;2023-09-18T11:01:44;1.40;;;1.27;;
81201;SDS011;71068;47.662;-2.750;2023-09-18T11:04:11;2.75;;;1.35;;
81201;SDS011;71068;47.662;-2.750;2023-09-18T11:09:22;8.35;;;1.67;;
81201;SDS011;71068;47.662;-2.750;2023-09-18T11:11:52;1.10;;;1.00;;
81201;SDS011;71068;47.662;-2.750;2023-09-18T11:14:42;4.28;;;2.40;;
81201;SDS011;71068;47.662;-2.750;2023-09-18T11:20:04;6.40;;;1.25;;
81201;SDS011;71068;47.662;-2.750;2023-09-18T11:28:08;6.65;;;1.65;;
81201;SDS011;71068;47.662;-2.750;2023-09-18T11:30:48;4.72;;;1.50;;
81201;SDS011;71068;47.662;-2.750;2023-09-18T11:33:29;9.23;;;1.38;;
81201;SDS011;71068;47.662;-2.750;2023-09-18T11:36:04;4.90;;;1.48;;
81201;SDS011;71068;47.662;-2.750;2023-09-18T11:38:33;7.53;;;1.73;;
81201;SDS011;71068;47.662;-2.750;2023-09-18T11:46:45;2.90;;;1.60;;
81201;SDS011;71068;47.662;-2.750;2023-09-18T11:49:22;2.58;;;1.10;;
81201;SDS011;71068;47.662;-2.750;2023-09-18T11:51:51;2.55;;;1.23;;
81201;SDS011;71068;47.662;-2.750;2023-09-18T11:54:18;3.15;;;1.48;;
81201;SDS011;71068;47.662;-2.750;2023-09-18T11:56:44;3.03;;;1.35;;
81201;SDS011;71068;47.662;-2.750;2023-09-18T11:59:11;1.88;;;1.30;;
81201;SDS011;71068;47.662;-2.750;2023-09-18T12:01:38;2.83;;;1.20;;
81201;SDS011;71068;47.662;-2.750;2023-09-18T12:04:11;3.42;;;1.17;;
81201;SDS011;71068;47.662;-2.750;2023-09-18T12:06:39;0.57;;;0.57;;
81201;SDS011;71068;47.662;-2.750;2023-09-18T12:09:14;4.60;;;1.15;;
81201;SDS011;71068;47.662;-2.750;2023-09-18T12:11:41;5.85;;;1.00;;
81201;SDS011;71068;47.662;-2.750;2023-09-18T12:14:08;3.17;;;1.00;;
81201;SDS011;71068;47.662;-2.750;2023-09-18T12:16:39;2.42;;;0.90;;
81201;SDS011;71068;47.662;-2.750;2023-09-18T12:19:05;1.25;;;1.00;;
81201;SDS011;71068;47.662;-2.750;2023-09-18T12:21:32;2.83;;;1.02;;
81201;SDS011;71068;47.662;-2.750;2023-09-18T12:24:00;0.73;;;0.70;;
81201;SDS011;71068;47.662;-2.750;2023-09-18T12:26:26;1.30;;;0.77;;
81201;SDS011;71068;47.662;-2.750;2023-09-18T12:28:54;1.45;;;1.05;;
81201;SDS011;71068;47.662;-2.750;2023-09-18T12:31:20;1.48;;;1.38;;
81201;SDS011;71068;47.662;-2.750;2023-09-18T12:33:46;5.18;;;0.90;;
81201;SDS011;71068;47.662;-2.750;2023-09-18T12:36:18;3.30;;;0.85;;
81201;SDS011;71068;47.662;-2.750;2023-09-18T12:39:07;1.65;;;0.90;;
81201;SDS011;71068;47.662;-2.750;2023-09-18T12:41:34;3.40;;;0.77;;
81201;SDS011;71068;47.662;-2.750;2023-09-18T12:44:02;5.72;;;1.02;;
81201;SDS011;71068;47.662;-2.750;2023-09-18T12:48:56;2.15;;;0.80;;
81201;SDS011;71068;47.662;-2.750;2023-09-18T12:51:29;1.23;;;1.00;;
81201;SDS011;71068;47.662;-2.750;2023-09-18T12:54:00;1.42;;;0.70;;
81201;SDS011;71068;47.662;-2.750;2023-09-18T12:56:31;0.90;;;0.60;;
81201;SDS011;71068;47.662;-2.750;2023-09-18T12:58:59;3.70;;;1.25;;
81201;SDS011;71068;47.662;-2.750;2023-09-18T13:01:25;3.10;;;1.02;;
81201;SDS011;71068;47.662;-2.750;2023-09-18T13:03:53;4.28;;;0.95;;
81201;SDS011;71068;47.662;-2.750;2023-09-18T13:06:22;2.78;;;1.17;;
81201;SDS011;71068;47.662;-2.750;2023-09-18T13:08:49;1.58;;;0.85;;
81201;SDS011;71068;47.662;-2.750;2023-09-18T13:11:18;1.52;;;0.75;;
81201;SDS011;71068;47.662;-2.750;2023-09-18T13:13:44;1.92;;;0.75;;
81201;SDS011;71068;47.662;-2.750;2023-09-18T13:16:10;7.95;;;1.67;;
81201;SDS011;71068;47.662;-2.750;2023-09-18T13:18:40;1.52;;;0.73;;
81201;SDS011;71068;47.662;-2.750;2023-09-18T13:23:43;4.55;;;1.30;;
81201;SDS011;71068;47.662;-2.750;2023-09-18T13:26:09;1.58;;;0.90;;
81201;SDS011;71068;47.662;-2.750;2023-09-18T13:28:36;3.17;;;0.95;;
81201;SDS011;71068;47.662;-2.750;2023-09-18T13:31:05;2.28;;;1.30;;
81201;SDS011;71068;47.662;-2.750;2023-09-18T13:33:32;5.22;;;1.33;;
81201;SDS011;71068;47.662;-2.750;2023-09-18T13:36:03;8.13;;;1.60;;
81201;SDS011;71068;47.662;-2.750;2023-09-18T13:38:30;2.40;;;0.93;;
81201;SDS011;71068;47.662;-2.750;2023-09-18T13:40:55;3.70;;;0.90;;
81201;SDS011;71068;47.662;-2.750;2023-09-18T13:43:21;6.53;;;1.70;;
81201;SDS011;71068;47.662;-2.750;2023-09-18T13:45:48;6.68;;;1.25;;
81201;SDS011;71068;47.662;-2.750;2023-09-18T13:48:18;3.03;;;1.17;;
81201;SDS011;71068;47.662;-2.750;2023-09-18T13:50:45;8.70;;;1.50;;
81201;SDS011;71068;47.662;-2.750;2023-09-18T13:53:13;3.25;;;1.40;;
81201;SDS011;71068;47.662;-2.750;2023-09-18T13:55:42;5.45;;;1.10;;
81201;SDS011;71068;47.662;-2.750;2023-09-18T13:58:14;4.25;;;0.93;;
81201;SDS011;71068;47.662;-2.750;2023-09-18T14:00:40;6.50;;;1.90;;
81201;SDS011;71068;47.662;-2.750;2023-09-18T14:03:08;4.95;;;1.45;;
81201;SDS011;71068;47.662;-2.750;2023-09-18T14:05:35;4.50;;;1.70;;
81201;SDS011;71068;47.662;-2.750;2023-09-18T14:08:01;3.35;;;1.30;;
81201;SDS011;71068;47.662;-2.750;2023-09-18T14:10:30;8.48;;;1.60;;
81201;SDS011;71068;47.662;-2.750;2023-09-18T14:12:56;4.28;;;1.80;;
81201;SDS011;71068;47.662;-2.750;2023-09-18T14:15:23;3.80;;;1.23;;
81201;SDS011;71068;47.662;-2.750;2023-09-18T14:17:52;2.15;;;1.35;;
81201;SDS011;71068;47.662;-2.750;2023-09-18T14:20:19;3.03;;;1.17;;
81201;SDS011;71068;47.662;-2.750;2023-09-18T14:22:46;3.60;;;1.17;;
81201;SDS011;71068;47.662;-2.750;2023-09-18T14:25:14;3.90;;;1.70;;
81201;SDS011;71068;47.662;-2.750;2023-09-18T14:27:41;4.53;;;1.20;;
81201;SDS011;71068;47.662;-2.750;2023-09-18T14:30:07;8.20;;;1.70;;
81201;SDS011;71068;47.662;-2.750;2023-09-18T14:32:35;5.97;;;1.52;;
81201;SDS011;71068;47.662;-2.750;2023-09-18T14:35:04;10.80;;;1.77;;
81201;SDS011;71068;47.662;-2.750;2023-09-18T14:37:34;3.10;;;1.02;;
81201;SDS011;71068;47.662;-2.750;2023-09-18T14:40:01;5.78;;;1.10;;
81201;SDS011;71068;47.662;-2.750;2023-09-18T14:42:30;5.80;;;1.40;;
81201;SDS011;71068;47.662;-2.750;2023-09-18T14:45:04;4.88;;;1.70;;
81201;SDS011;71068;47.662;-2.750;2023-09-18T14:49:56;2.28;;;0.88;;
81201;SDS011;71068;47.662;-2.750;2023-09-18T14:52:24;3.35;;;1.27;;
81201;SDS011;71068;47.662;-2.750;2023-09-18T14:54:51;2.85;;;1.33;;
81201;SDS011;71068;47.662;-2.750;2023-09-18T14:57:18;2.72;;;1.08;;
81201;SDS011;71068;47.662;-2.750;2023-09-18T14:59:46;2.40;;;1.20;;
81201;SDS011;71068;47.662;-2.750;2023-09-18T15:02:13;3.05;;;1.08;;
81201;SDS011;71068;47.662;-2.750;2023-09-18T15:04:43;3.30;;;1.08;;
81201;SDS011;71068;47.662;-2.750;2023-09-18T15:07:12;3.22;;;0.60;;
81201;SDS011;71068;47.662;-2.750;2023-09-18T15:12:05;4.65;;;1.15;;
81201;SDS011;71068;47.662;-2.750;2023-09-18T15:14:34;5.13;;;1.20;;
81201;SDS011;71068;47.662;-2.750;2023-09-18T15:17:07;2.63;;;0.77;;
81201;SDS011;71068;47.662;-2.750;2023-09-18T15:19:33;1.90;;;0.90;;
81201;SDS011;71068;47.662;-2.750;2023-09-18T15:22:02;4.82;;;1.10;;
81201;SDS011;71068;47.662;-2.750;2023-09-18T15:24:37;4.13;;;0.88;;
81201;SDS011;71068;47.662;-2.750;2023-09-18T15:27:03;4.35;;;1.23;;
81201;SDS011;71068;47.662;-2.750;2023-09-18T15:29:31;4.60;;;0.95;;
81201;SDS011;71068;47.662;-2.750;2023-09-18T15:31:57;3.85;;;1.20;;
81201;SDS011;71068;47.662;-2.750;2023-09-18T15:34:25;3.70;;;1.13;;
81201;SDS011;71068;47.662;-2.750;2023-09-18T15:36:51;2.10;;;0.82;;
81201;SDS011;71068;47.662;-2.750;2023-09-18T15:39:17;5.07;;;1.20;;